Time;durP1;ratioP1;P1;durP2;ratioP2;P2;SDS_P1;SDS_P2;PMS_P1;PMS_P2;Temp;Humidity;BMP_temperature;BMP_pressure;BME280_temperature;BME280_humidity;BME280_pressure;Samples;Min_cycle;Max_cycle;Signal;HPM_P1;HPM_P2
2023/12/27 00:01:37;;;;;;;9.80;1.20;;;5.10;99.90;;;;;;4271420;27;20084;-84
2023/12/27 00:03:39;;;;;;;6.93;1.23;;;5.60;99.90;;;;;;4269419;27;20050;-85
2023/12/27 00:05:40;;;;;;;9.68;1.15;;;5.40;99.90;;;;;;4257175;27;20043;-85
2023/12/27 00:07:43;;;;;;;7.25;1.50;;;4.10;99.90;;;;;;4234589;28;20054;-85
2023/12/27 00:09:43;;;;;;;10.80;2.00;;;4.90;99.90;;;;;;4253464;27;20074;-86
2023/12/27 00:11:45;;;;;;;7.63;1.80;;;5.40;99.90;;;;;;4253423;27;20043;-86
2023/12/27 00:13:47;;;;;;;8.00;1.83;;;5.30;99.90;;;;;;4253713;27;20112;-85
2023/12/27 00:15:48;;;;;;;6.00;1.73;;;5.40;99.90;;;;;;4253053;27;20043;-85
2023/12/27 00:17:49;;;;;;;5.30;0.95;;;4.80;99.90;;;;;;4252967;27;20099;-85
2023/12/27 00:19:51;;;;;;;5.57;1.55;;;4.90;99.90;;;;;;4252536;27;20043;-86
2023/12/27 00:21:53;;;;;;;8.05;1.55;;;5.20;99.90;;;;;;4252705;27;20047;-86
2023/12/27 00:23:55;;;;;;;4.20;1.23;;;5.50;99.90;;;;;;4252913;27;20491;-85
2023/12/27 00:25:57;;;;;;;10.70;1.67;;;5.20;99.90;;;;;;4252381;27;20043;-85
2023/12/27 00:27:59;;;;;;;6.72;1.85;;;4.10;99.90;;;;;;4252953;27;20115;-86
2023/12/27 00:30:03;;;;;;;4.45;1.58;;;3.70;99.90;;;;;;4252421;27;20050;-85
2023/12/27 00:32:08;;;;;;;10.02;1.60;;;3.90;99.90;;;;;;4252645;27;20079;-85
2023/12/27 00:34:09;;;;;;;10.50;1.73;;;3.90;99.90;;;;;;4252672;27;20047;-85
2023/12/27 00:36:11;;;;;;;6.97;1.98;;;4.70;99.90;;;;;;4252690;27;20045;-85
2023/12/27 00:38:13;;;;;;;8.10;1.83;;;4.90;99.90;;;;;;4233769;28;20081;-85
2023/12/27 00:40:14;;;;;;;9.90;2.40;;;4.70;99.90;;;;;;4234381;28;20051;-85
2023/12/27 00:42:16;;;;;;;6.35;2.15;;;3.80;99.90;;;;;;4252502;27;20046;-85
2023/12/27 00:44:17;;;;;;;8.30;1.67;;;5.10;99.90;;;;;;4252585;27;20383;-85
2023/12/27 00:46:19;;;;;;;10.40;1.50;;;4.60;99.90;;;;;;4251221;27;20035;-85
2023/12/27 00:48:21;;;;;;;13.80;2.22;;;3.90;99.90;;;;;;4242473;27;20152;-85
2023/12/27 00:50:22;;;;;;;7.20;1.50;;;5.30;99.90;;;;;;4252221;27;20135;-85
2023/12/27 00:52:23;;;;;;;13.10;2.22;;;4.90;99.90;;;;;;4233447;28;20055;-85
2023/12/27 00:54:24;;;;;;;4.18;1.38;;;4.30;99.90;;;;;;4252474;27;20047;-86
2023/12/27 00:56:25;;;;;;;11.05;1.85;;;5.00;99.90;;;;;;4252401;27;20039;-86
2023/12/27 00:58:26;;;;;;;5.63;1.83;;;4.30;99.90;;;;;;4251813;27;20517;-85
2023/12/27 01:00:27;;;;;;;8.27;1.60;;;4.40;99.90;;;;;;4252583;27;20065;-86
2023/12/27 01:02:30;;;;;;;11.07;2.17;;;4.80;99.90;;;;;;4252465;27;20486;-85
2023/12/27 01:04:33;;;;;;;10.23;3.42;;;5.00;99.90;;;;;;4252555;27;20039;-86
2023/12/27 01:06:35;;;;;;;8.25;1.67;;;4.90;99.90;;;;;;4252460;27;20046;-86
2023/12/27 01:08:37;;;;;;;6.97;1.23;;;5.20;99.90;;;;;;4252144;27;20043;-85
2023/12/27 01:10:38;;;;;;;8.55;1.73;;;4.10;99.90;;;;;;4252605;27;20039;-85
2023/12/27 01:12:39;;;;;;;7.95;1.90;;;4.40;99.90;;;;;;4252606;27;20069;-86
2023/12/27 01:14:41;;;;;;;8.02;1.67;;;5.10;99.90;;;;;;4234418;28;20122;-85
2023/12/27 01:16:43;;;;;;;8.70;1.67;;;5.10;99.90;;;;;;4253513;27;20082;-86
2023/12/27 01:18:44;;;;;;;7.65;1.60;;;4.90;99.90;;;;;;4253541;27;20047;-85
2023/12/27 01:20:46;;;;;;;10.02;1.50;;;4.90;99.90;;;;;;4253524;27;20123;-86
2023/12/27 01:22:48;;;;;;;4.07;1.27;;;4.70;99.90;;;;;;4253488;27;20102;-85
2023/12/27 01:24:50;;;;;;;5.18;1.60;;;4.90;99.90;;;;;;4253670;27;20075;-86
2023/12/27 01:26:51;;;;;;;19.33;2.15;;;3.50;99.90;;;;;;4253653;27;20395;-85
2023/12/27 01:28:52;;;;;;;8.88;1.88;;;4.20;99.90;;;;;;4252997;27;20071;-85
2023/12/27 01:30:53;;;;;;;8.18;1.38;;;4.60;99.90;;;;;;4252995;27;20031;-85
2023/12/27 01:32:55;;;;;;;9.23;1.85;;;5.00;99.90;;;;;;4252374;27;20100;-85
2023/12/27 01:34:56;;;;;;;5.03;1.50;;;4.90;99.90;;;;;;4252300;27;20394;-85
2023/12/27 01:36:56;;;;;;;7.57;1.40;;;4.50;99.90;;;;;;4234606;28;20044;-85
2023/12/27 01:38:59;;;;;;;8.30;1.80;;;3.40;99.90;;;;;;4252732;27;20050;-85
2023/12/27 01:41:01;;;;;;;9.27;1.52;;;3.40;99.90;;;;;;4252821;27;20543;-85
2023/12/27 01:43:01;;;;;;;6.90;1.90;;;4.80;99.90;;;;;;4252030;27;20393;-85
2023/12/27 01:45:04;;;;;;;11.95;1.98;;;3.40;99.90;;;;;;4252645;27;20060;-85
2023/12/27 01:47:06;;;;;;;16.30;3.95;;;3.50;99.90;;;;;;4252341;27;20039;-86
2023/12/27 01:49:13;;;;;;;9.02;1.55;;;4.90;99.90;;;;;;4252903;27;20077;-85
2023/12/27 01:51:14;;;;;;;8.82;2.25;;;4.40;99.90;;;;;;4252636;27;20801;-85
2023/12/27 01:53:20;;;;;;;7.82;1.80;;;4.70;99.90;;;;;;4252409;27;20122;-85
2023/12/27 01:55:23;;;;;;;5.82;2.38;;;3.30;99.90;;;;;;4253077;27;20104;-85
2023/12/27 01:57:25;;;;;;;11.80;1.58;;;4.80;99.90;;;;;;4253055;28;20533;-85
2023/12/27 01:59:26;;;;;;;13.13;1.77;;;3.70;99.90;;;;;;4252059;28;20054;-85
2023/12/27 02:01:27;;;;;;;9.88;1.88;;;4.70;99.90;;;;;;4251884;27;20475;-86
2023/12/27 02:03:29;;;;;;;9.52;1.70;;;4.40;99.90;;;;;;4251770;28;20058;-85
2023/12/27 02:05:32;;;;;;;8.32;1.75;;;4.60;99.90;;;;;;4252731;28;20503;-85
2023/12/27 02:07:35;;;;;;;13.65;2.30;;;4.40;99.90;;;;;;4253004;28;20475;-85
2023/12/27 02:09:36;;;;;;;13.00;1.83;;;4.30;99.90;;;;;;4234309;28;20058;-85
2023/12/27 02:11:37;;;;;;;6.70;1.80;;;4.90;99.90;;;;;;4255064;27;20043;-85
2023/12/27 02:13:41;;;;;;;6.97;1.73;;;4.70;99.90;;;;;;4237755;28;20052;-85
2023/12/27 02:15:43;;;;;;;9.48;1.83;;;3.20;99.90;;;;;;4237687;28;20063;-85
2023/12/27 02:17:45;;;;;;;11.07;1.95;;;4.90;99.90;;;;;;4256185;27;20078;-86
2023/12/27 02:19:46;;;;;;;6.57;2.33;;;3.90;99.90;;;;;;4256344;27;20043;-85
2023/12/27 02:21:49;;;;;;;6.43;1.20;;;4.70;99.90;;;;;;4255476;27;20095;-85
2023/12/27 02:23:53;;;;;;;3.78;1.55;;;3.00;99.90;;;;;;4255937;27;20043;-86
2023/12/27 02:25:55;;;;;;;5.60;1.08;;;4.70;99.90;;;;;;4255847;27;20085;-85
2023/12/27 02:27:56;;;;;;;11.57;2.03;;;3.20;99.90;;;;;;4256176;27;20398;-85
2023/12/27 02:29:58;;;;;;;5.93;1.77;;;4.90;99.90;;;;;;4255809;27;20043;-85
2023/12/27 02:31:58;;;;;;;10.88;1.67;;;4.60;99.90;;;;;;4256607;27;20047;-86
2023/12/27 02:34:00;;;;;;;10.00;1.73;;;4.60;99.90;;;;;;4256198;27;20122;-86
2023/12/27 02:36:02;;;;;;;11.43;1.75;;;4.10;99.90;;;;;;4237446;28;20074;-86
2023/12/27 02:38:03;;;;;;;4.20;1.02;;;3.10;99.90;;;;;;4255735;27;20126;-86
2023/12/27 02:40:04;;;;;;;12.63;2.92;;;4.00;99.90;;;;;;4255960;27;20051;-86
2023/12/27 02:42:07;;;;;;;8.38;1.30;;;3.10;99.90;;;;;;4237260;28;20633;-86
2023/12/27 02:44:07;;;;;;;9.95;2.45;;;4.00;99.90;;;;;;4254734;27;20047;-86
2023/12/27 02:46:10;;;;;;;9.35;1.55;;;4.60;99.90;;;;;;4255076;27;20043;-86
2023/12/27 02:48:12;;;;;;;7.85;1.42;;;3.00;99.90;;;;;;4255106;27;20067;-86
2023/12/27 02:50:13;;;;;;;14.80;2.25;;;4.20;99.90;;;;;;4254813;27;20164;-86
2023/12/27 02:52:15;;;;;;;9.38;1.77;;;3.00;99.90;;;;;;4255307;27;20504;-85
2023/12/27 02:54:16;;;;;;;8.90;1.27;;;3.90;99.90;;;;;;4255498;27;20039;-85
2023/12/27 02:56:18;;;;;;;6.88;1.40;;;4.60;99.90;;;;;;4255583;27;20476;-85
2023/12/27 02:58:19;;;;;;;5.45;1.40;;;3.90;99.90;;;;;;4255749;27;20058;-85
2023/12/27 03:00:20;;;;;;;5.28;1.30;;;2.80;99.90;;;;;;4237412;28;20047;-85
2023/12/27 03:02:23;;;;;;;5.43;1.70;;;4.10;99.90;;;;;;4255030;27;20116;-85
2023/12/27 03:04:23;;;;;;;10.05;1.70;;;4.10;99.90;;;;;;4255122;27;20118;-86
2023/12/27 03:06:25;;;;;;;6.47;1.45;;;4.40;99.90;;;;;;4254872;27;20043;-85
2023/12/27 03:08:27;;;;;;;11.93;1.80;;;4.10;99.90;;;;;;4255675;27;20077;-85
2023/12/27 03:10:28;;;;;;;6.85;1.50;;;3.80;99.90;;;;;;4254760;27;20053;-85
2023/12/27 03:12:29;;;;;;;5.78;1.60;;;4.50;99.90;;;;;;4255075;27;20043;-85
2023/12/27 03:14:31;;;;;;;8.68;3.05;;;4.40;99.90;;;;;;4254379;27;20114;-85
2023/12/27 03:16:33;;;;;;;5.40;1.45;;;2.50;99.90;;;;;;4254543;27;20046;-85
2023/12/27 03:18:35;;;;;;;8.88;1.35;;;2.80;99.90;;;;;;4254519;27;20043;-85
2023/12/27 03:20:35;;;;;;;7.03;1.60;;;4.30;99.90;;;;;;4236417;28;20077;-85
2023/12/27 03:22:37;;;;;;;4.40;1.52;;;2.90;99.90;;;;;;4235577;28;20047;-86
2023/12/27 03:24:39;;;;;;;5.38;1.20;;;4.60;99.90;;;;;;4254609;27;20040;-85
2023/12/27 03:26:41;;;;;;;8.00;1.88;;;3.20;99.90;;;;;;4253914;27;20112;-85
2023/12/27 03:28:42;;;;;;;6.25;1.42;;;2.70;99.90;;;;;;4255004;27;20104;-85
2023/12/27 03:30:43;;;;;;;4.00;1.40;;;2.90;99.90;;;;;;4254005;27;20043;-85
2023/12/27 03:32:44;;;;;;;6.65;1.35;;;3.50;99.90;;;;;;4254965;27;20126;-85
2023/12/27 03:34:44;;;;;;;6.95;2.03;;;4.20;99.90;;;;;;4254465;27;20114;-86
2023/12/27 03:36:46;;;;;;;7.00;1.95;;;4.00;99.90;;;;;;4254358;27;20035;-85
2023/12/27 03:38:47;;;;;;;9.65;1.45;;;3.30;99.90;;;;;;4253950;27;20050;-86
2023/12/27 03:40:50;;;;;;;10.98;1.38;;;3.90;99.90;;;;;;4255357;27;20047;-85
2023/12/27 03:42:51;;;;;;;11.85;2.00;;;4.30;99.90;;;;;;4236887;28;20480;-85
2023/12/27 03:44:53;;;;;;;11.05;1.63;;;3.20;99.90;;;;;;4236599;28;20051;-85
2023/12/27 03:47:00;;;;;;;10.23;1.83;;;2.90;99.90;;;;;;4255609;27;20062;-85
2023/12/27 03:49:00;;;;;;;3.90;1.23;;;3.60;99.90;;;;;;4255512;27;20040;-85
2023/12/27 03:51:02;;;;;;;9.95;2.35;;;3.40;99.90;;;;;;4255057;27;20043;-85
2023/12/27 03:53:04;;;;;;;9.98;2.15;;;2.80;99.90;;;;;;4236635;28;20107;-85
2023/12/27 03:55:05;;;;;;;6.95;1.65;;;3.10;99.90;;;;;;4254923;27;20169;-85
2023/12/27 03:57:07;;;;;;;6.35;1.60;;;2.80;99.90;;;;;;4236416;28;20159;-85
2023/12/27 03:59:09;;;;;;;9.68;2.33;;;2.70;99.90;;;;;;4254668;27;20100;-85
2023/12/27 04:01:10;;;;;;;4.30;1.55;;;4.20;99.90;;;;;;4254434;27;20046;-85
2023/12/27 04:03:10;;;;;;;7.78;2.35;;;2.40;99.90;;;;;;4254170;27;20043;-85
2023/12/27 04:05:12;;;;;;;8.30;1.45;;;3.20;99.90;;;;;;4254233;27;20043;-85
2023/12/27 04:07:14;;;;;;;15.43;3.22;;;2.80;99.90;;;;;;4253514;27;20039;-85
2023/12/27 04:09:16;;;;;;;8.48;1.58;;;3.80;99.90;;;;;;4235813;28;20048;-85
2023/12/27 04:11:17;;;;;;;6.18;1.50;;;3.00;99.90;;;;;;4253469;27;20475;-85
2023/12/27 04:13:18;;;;;;;12.80;2.40;;;4.00;99.90;;;;;;4235920;28;20480;-85
2023/12/27 04:15:20;;;;;;;4.63;1.63;;;2.60;99.90;;;;;;4254571;27;20050;-85
2023/12/27 04:17:21;;;;;;;10.27;1.98;;;2.70;99.90;;;;;;4254700;27;20043;-85
2023/12/27 04:19:22;;;;;;;14.70;2.20;;;3.60;99.90;;;;;;4254594;27;20054;-85
2023/12/27 04:21:25;;;;;;;7.78;1.85;;;4.00;99.90;;;;;;4254878;27;20107;-85
2023/12/27 04:23:25;;;;;;;5.78;1.65;;;3.50;99.90;;;;;;4254493;27;20054;-85
2023/12/27 04:25:28;;;;;;;13.55;1.90;;;2.60;99.90;;;;;;4235598;28;20060;-85
2023/12/27 04:27:30;;;;;;;7.82;2.47;;;3.00;99.90;;;;;;4254265;27;20050;-86
2023/12/27 04:29:32;;;;;;;14.48;1.60;;;4.00;99.90;;;;;;4254193;27;20046;-85
2023/12/27 04:31:37;;;;;;;6.70;1.52;;;3.20;99.90;;;;;;4235788;28;20127;-85
2023/12/27 04:33:37;;;;;;;5.82;1.50;;;2.70;99.90;;;;;;4253540;27;20421;-85
2023/12/27 04:35:38;;;;;;;8.75;2.05;;;2.80;99.90;;;;;;4254558;27;20043;-85
2023/12/27 04:37:39;;;;;;;9.35;2.20;;;3.40;99.90;;;;;;4254693;27;20047;-85
2023/12/27 04:39:40;;;;;;;6.70;2.10;;;4.20;99.90;;;;;;4254329;27;20094;-86
2023/12/27 04:41:41;;;;;;;5.60;1.55;;;3.50;99.90;;;;;;4235650;28;20051;-85
2023/12/27 04:43:43;;;;;;;7.13;1.30;;;3.80;99.90;;;;;;4254293;27;20031;-86
2023/12/27 04:45:44;;;;;;;3.60;1.40;;;4.20;99.90;;;;;;4254483;27;20053;-85
2023/12/27 04:47:46;;;;;;;11.43;1.38;;;3.40;99.90;;;;;;4252718;27;20043;-85
2023/12/27 04:49:48;;;;;;;6.80;2.40;;;2.60;99.90;;;;;;4253778;27;20525;-85
2023/12/27 04:51:49;;;;;;;8.65;1.65;;;4.00;99.90;;;;;;4254466;27;20039;-86
2023/12/27 04:53:51;;;;;;;6.68;1.50;;;4.00;99.90;;;;;;4254104;27;20043;-86
2023/12/27 04:55:52;;;;;;;10.82;1.70;;;4.30;99.90;;;;;;4254497;27;20130;-85
2023/12/27 04:57:53;;;;;;;6.18;1.52;;;3.60;99.90;;;;;;4254518;27;20050;-85
2023/12/27 04:59:57;;;;;;;7.75;2.20;;;1.80;99.90;;;;;;4254854;27;20046;-85
2023/12/27 05:01:58;;;;;;;14.23;2.22;;;3.80;99.90;;;;;;4255230;27;20100;-85
2023/12/27 05:03:59;;;;;;;9.82;2.17;;;3.20;99.90;;;;;;4255000;27;20043;-85
2023/12/27 05:06:09;;;;;;;7.60;1.73;;;2.80;99.90;;;;;;4254972;27;20074;-86
2023/12/27 05:08:11;;;;;;;14.60;2.20;;;2.50;99.90;;;;;;4255813;27;20051;-85
2023/12/27 05:10:13;;;;;;;12.93;2.63;;;2.80;99.90;;;;;;4256385;27;20122;-85
2023/12/27 05:12:15;;;;;;;15.57;2.50;;;3.00;99.90;;;;;;4255768;27;20046;-86
2023/12/27 05:14:16;;;;;;;11.75;2.17;;;3.40;99.90;;;;;;4256131;27;20043;-85
2023/12/27 05:16:23;;;;;;;10.30;2.40;;;4.30;99.90;;;;;;4256346;27;20139;-85
2023/12/27 05:18:24;;;;;;;9.70;2.92;;;3.40;99.90;;;;;;4254351;27;20078;-85
2023/12/27 05:20:26;;;;;;;5.43;2.25;;;4.30;99.90;;;;;;4254480;27;20047;-85
2023/12/27 05:22:29;;;;;;;14.32;3.45;;;3.40;99.90;;;;;;4254676;27;20043;-85
2023/12/27 05:24:31;;;;;;;11.70;2.33;;;3.90;99.90;;;;;;4253930;27;20062;-85
2023/12/27 05:26:33;;;;;;;10.48;2.90;;;3.40;99.90;;;;;;4255142;27;20090;-86
2023/12/27 05:28:34;;;;;;;9.90;2.20;;;3.40;99.90;;;;;;4254327;27;20053;-86
2023/12/27 05:30:35;;;;;;;14.75;3.25;;;3.90;99.90;;;;;;4254983;27;20491;-85
2023/12/27 05:32:36;;;;;;;6.90;2.45;;;4.20;99.90;;;;;;4254245;27;20047;-85
2023/12/27 05:34:38;;;;;;;13.40;2.97;;;3.20;99.90;;;;;;4265134;27;20030;-85
2023/12/27 05:36:38;;;;;;;8.82;2.60;;;2.60;99.90;;;;;;4270308;27;20023;-85
2023/12/27 05:38:40;;;;;;;10.20;2.42;;;2.90;99.90;;;;;;4252529;28;20079;-85
2023/12/27 05:40:42;;;;;;;9.65;2.65;;;3.90;99.90;;;;;;4252886;28;20059;-85
2023/12/27 05:42:45;;;;;;;7.50;2.92;;;3.80;99.90;;;;;;4270459;27;20035;-85
2023/12/27 05:44:46;;;;;;;11.07;2.58;;;3.40;99.90;;;;;;4269641;27;20026;-85
2023/12/27 05:46:48;;;;;;;14.10;4.03;;;4.10;99.90;;;;;;4235778;28;20020;-85
2023/12/27 05:48:50;;;;;;;11.85;2.83;;;3.80;99.90;;;;;;4270326;27;20058;-85
2023/12/27 05:50:58;;;;;;;12.75;3.20;;;3.10;99.90;;;;;;4256905;27;20063;-85
2023/12/27 05:52:58;;;;;;;14.00;2.80;;;3.80;99.90;;;;;;4254164;27;20039;-85
2023/12/27 05:55:00;;;;;;;12.30;3.10;;;3.90;99.90;;;;;;4254324;27;20483;-85
2023/12/27 05:57:02;;;;;;;12.60;3.50;;;3.30;99.90;;;;;;4254457;27;20047;-85
2023/12/27 05:59:05;;;;;;;14.55;3.08;;;2.70;99.90;;;;;;4254194;27;20069;-85
2023/12/27 06:01:05;;;;;;;9.93;2.83;;;3.70;99.90;;;;;;4269962;27;20051;-85
2023/12/27 06:03:06;;;;;;;10.40;2.40;;;3.10;99.90;;;;;;4253946;27;20046;-85
2023/12/27 06:05:08;;;;;;;12.60;2.25;;;4.20;99.90;;;;;;4254257;28;20047;-85
2023/12/27 06:07:09;;;;;;;10.82;2.80;;;2.60;99.90;;;;;;4253547;28;20479;-85
2023/12/27 06:09:10;;;;;;;8.95;2.80;;;3.30;99.90;;;;;;4235366;28;20039;-85
2023/12/27 06:11:11;;;;;;;10.60;2.30;;;3.90;99.90;;;;;;4253534;28;20399;-86
2023/12/27 06:13:13;;;;;;;6.65;2.10;;;3.20;99.90;;;;;;4253935;28;20042;-85
2023/12/27 06:15:14;;;;;;;9.38;1.90;;;4.00;99.90;;;;;;4254605;28;20047;-85
2023/12/27 06:17:16;;;;;;;9.48;3.22;;;3.70;99.90;;;;;;4252698;28;20035;-85
2023/12/27 06:19:17;;;;;;;8.23;1.85;;;2.90;99.90;;;;;;4236231;28;20043;-86
2023/12/27 06:21:20;;;;;;;9.30;2.30;;;2.70;99.90;;;;;;4253889;28;20043;-85
2023/12/27 06:23:21;;;;;;;14.73;3.03;;;3.90;99.90;;;;;;4253787;28;20039;-85
2023/12/27 06:25:23;;;;;;;11.23;2.20;;;3.40;99.90;;;;;;4252719;28;20149;-85
2023/12/27 06:27:25;;;;;;;10.90;1.77;;;4.20;99.90;;;;;;4253210;28;20035;-86
2023/12/27 06:29:25;;;;;;;12.07;2.55;;;4.10;99.90;;;;;;4253210;28;20071;-85
2023/12/27 06:31:34;;;;;;;8.77;2.10;;;3.40;99.90;;;;;;4253817;28;20055;-85
2023/12/27 06:33:35;;;;;;;11.63;2.28;;;4.00;99.90;;;;;;4253637;28;20434;-85
2023/12/27 06:35:36;;;;;;;10.85;2.40;;;3.40;99.90;;;;;;4234767;28;20055;-86
2023/12/27 06:37:36;;;;;;;12.07;2.08;;;4.20;99.90;;;;;;4252980;28;20118;-85
2023/12/27 06:39:39;;;;;;;13.15;2.20;;;4.30;99.90;;;;;;4252111;28;20561;-85
2023/12/27 06:41:41;;;;;;;7.65;2.20;;;2.80;99.90;;;;;;4253150;28;20372;-86
2023/12/27 06:43:43;;;;;;;6.85;2.00;;;2.60;99.90;;;;;;4251804;28;20047;-85
2023/12/27 06:45:43;;;;;;;9.85;2.33;;;3.90;99.90;;;;;;4253196;28;20086;-85
2023/12/27 06:47:45;;;;;;;4.82;1.60;;;3.10;99.90;;;;;;4253273;28;20039;-85
2023/12/27 06:49:47;;;;;;;11.63;2.38;;;4.10;99.90;;;;;;4252705;28;20039;-85
2023/12/27 06:51:49;;;;;;;10.00;1.75;;;3.40;99.90;;;;;;4253744;28;20047;-85
2023/12/27 06:53:50;;;;;;;7.63;1.90;;;3.70;99.90;;;;;;4253358;28;20054;-85
2023/12/27 06:55:52;;;;;;;12.40;1.58;;;2.90;99.90;;;;;;4253104;27;20043;-85
2023/12/27 06:57:55;;;;;;;9.95;1.80;;;4.30;99.90;;;;;;4254686;27;20107;-86
2023/12/27 06:59:57;;;;;;;9.63;2.22;;;4.20;99.90;;;;;;4256313;27;20043;-85
2023/12/27 07:01:57;;;;;;;11.25;1.70;;;3.50;99.90;;;;;;4255716;27;20088;-86
2023/12/27 07:03:58;;;;;;;11.75;2.47;;;3.60;99.90;;;;;;4255660;27;20499;-85
2023/12/27 07:05:59;;;;;;;9.35;1.70;;;4.20;99.90;;;;;;4257020;27;20039;-85
2023/12/27 07:07:59;;;;;;;5.97;2.03;;;4.20;99.90;;;;;;4261403;27;20054;-85
2023/12/27 07:10:01;;;;;;;8.73;2.20;;;4.70;99.90;;;;;;4243240;28;20055;-85
2023/12/27 07:12:02;;;;;;;5.68;1.65;;;3.40;99.90;;;;;;4263252;27;20054;-85
2023/12/27 07:14:04;;;;;;;7.80;1.90;;;3.00;99.90;;;;;;4264817;27;20070;-84
2023/12/27 07:16:05;;;;;;;6.35;1.83;;;3.60;99.90;;;;;;4264431;27;20054;-85
2023/12/27 07:18:07;;;;;;;8.50;1.60;;;3.10;99.90;;;;;;4264158;27;20042;-86
2023/12/27 07:20:10;;;;;;;12.45;1.75;;;4.00;99.90;;;;;;4264406;27;20043;-85
2023/12/27 07:22:12;;;;;;;7.05;1.48;;;3.00;99.90;;;;;;4264379;27;20160;-85
2023/12/27 07:24:18;;;;;;;7.07;2.58;;;3.00;99.90;;;;;;4245907;28;20067;-85
2023/12/27 07:26:20;;;;;;;8.95;1.67;;;4.00;99.90;;;;;;4264083;27;20043;-85
2023/12/27 07:28:21;;;;;;;12.90;2.13;;;4.60;99.90;;;;;;4246174;28;20048;-86
2023/12/27 07:30:22;;;;;;;10.82;1.95;;;4.40;99.90;;;;;;4246296;28;20063;-85
2023/12/27 07:32:25;;;;;;;14.18;2.30;;;4.40;99.90;;;;;;4263639;27;20403;-86
2023/12/27 07:34:27;;;;;;;8.30;1.60;;;4.10;99.90;;;;;;4262901;27;20061;-85
2023/12/27 07:36:27;;;;;;;3.45;2.20;;;3.60;99.90;;;;;;4247593;28;20056;-85
2023/12/27 07:38:28;;;;;;;17.83;2.05;;;4.50;99.90;;;;;;4265949;27;20023;-85
2023/12/27 07:40:29;;;;;;;8.38;2.03;;;3.80;99.90;;;;;;4267919;27;20047;-86
2023/12/27 07:42:30;;;;;;;6.25;1.90;;;4.00;99.90;;;;;;4252334;28;20061;-85
2023/12/27 07:44:32;;;;;;;10.95;2.17;;;3.80;99.90;;;;;;4267986;27;20043;-85
2023/12/27 07:46:34;;;;;;;8.23;2.50;;;3.60;99.90;;;;;;4259307;27;20091;-85
2023/12/27 07:48:37;;;;;;;11.27;3.25;;;3.20;99.90;;;;;;4240483;28;20526;-85
2023/12/27 07:50:40;;;;;;;11.93;2.33;;;4.80;99.90;;;;;;4222511;28;20043;-85
2023/12/27 07:52:42;;;;;;;8.50;2.40;;;3.30;99.90;;;;;;4256661;27;20047;-85
2023/12/27 07:54:43;;;;;;;8.98;2.05;;;5.00;99.90;;;;;;4256021;27;20131;-85
2023/12/27 07:56:45;;;;;;;10.55;2.83;;;3.40;99.90;;;;;;4237938;28;20079;-85
2023/12/27 07:58:47;;;;;;;7.07;2.33;;;4.60;99.90;;;;;;4237575;28;20047;-85
2023/12/27 08:00:49;;;;;;;11.88;2.75;;;4.30;99.90;;;;;;4237548;28;20396;-85
2023/12/27 08:02:51;;;;;;;10.80;2.50;;;3.20;99.90;;;;;;4254833;27;20047;-85
2023/12/27 08:04:52;;;;;;;10.05;2.75;;;3.90;99.90;;;;;;4255307;27;20039;-85
2023/12/27 08:06:54;;;;;;;13.48;2.35;;;4.00;99.90;;;;;;4267061;27;20023;-85
2023/12/27 08:08:57;;;;;;;13.50;2.75;;;4.00;99.90;;;;;;4270619;27;20043;-85
2023/12/27 08:10:59;;;;;;;8.38;2.78;;;4.90;99.90;;;;;;4270685;27;20079;-85
2023/12/27 08:13:02;;;;;;;8.73;1.73;;;3.80;99.90;;;;;;4253108;28;20098;-85
2023/12/27 08:15:03;;;;;;;7.63;2.63;;;4.00;99.90;;;;;;4271332;27;20046;-84
2023/12/27 08:17:05;;;;;;;14.75;2.75;;;3.50;99.90;;;;;;4271323;27;20034;-86
2023/12/27 08:19:06;;;;;;;8.70;1.73;;;5.10;99.90;;;;;;4271287;27;20082;-85
2023/12/27 08:21:10;;;;;;;11.02;2.42;;;4.80;99.90;;;;;;4267563;27;20035;-85
2023/12/27 08:23:13;;;;;;;12.40;2.75;;;4.90;99.90;;;;;;4255337;27;20047;-85
2023/12/27 08:25:15;;;;;;;12.90;2.67;;;5.00;99.90;;;;;;4252873;27;20070;-85
2023/12/27 08:27:16;;;;;;;11.05;2.83;;;4.00;99.90;;;;;;4253126;27;20071;-85
2023/12/27 08:29:17;;;;;;;10.90;2.80;;;4.20;99.90;;;;;;4253380;27;20043;-85
2023/12/27 08:31:18;;;;;;;9.75;2.83;;;5.00;99.90;;;;;;4253646;27;20478;-85
2023/12/27 08:33:21;;;;;;;6.20;2.40;;;4.70;99.90;;;;;;4236573;28;20044;-85
2023/12/27 08:35:23;;;;;;;8.10;2.08;;;4.50;99.90;;;;;;4255395;27;20050;-85
2023/12/27 08:37:23;;;;;;;9.43;3.80;;;5.00;99.90;;;;;;4253181;27;20062;-85
2023/12/27 08:39:25;;;;;;;9.40;2.10;;;3.90;99.90;;;;;;4255075;27;20051;-85
2023/12/27 08:41:26;;;;;;;11.90;2.95;;;5.10;99.90;;;;;;4255303;27;20126;-85
2023/12/27 08:43:29;;;;;;;11.13;2.25;;;5.00;99.90;;;;;;4257601;27;20066;-85
2023/12/27 08:45:32;;;;;;;10.50;3.70;;;5.20;99.90;;;;;;4259940;27;20105;-85
2023/12/27 08:47:33;;;;;;;9.27;2.20;;;5.30;99.90;;;;;;4260675;27;20099;-85
2023/12/27 08:49:34;;;;;;;6.65;2.58;;;4.90;99.90;;;;;;4266591;27;20027;-85
2023/12/27 08:51:37;;;;;;;8.65;2.88;;;5.10;99.90;;;;;;4235963;28;20043;-85
2023/12/27 08:53:38;;;;;;;11.23;3.03;;;5.20;99.90;;;;;;4253060;28;20085;-85
2023/12/27 08:55:38;;;;;;;12.63;4.00;;;4.80;99.90;;;;;;4252816;28;20050;-85
2023/12/27 08:57:40;;;;;;;9.38;3.50;;;4.50;99.90;;;;;;4270255;27;20031;-85
2023/12/27 08:59:41;;;;;;;10.13;5.32;;;4.70;99.90;;;;;;4269986;27;20050;-85
2023/12/27 09:01:45;;;;;;;15.65;4.65;;;4.40;99.90;;;;;;4270463;27;20030;-85
2023/12/27 09:03:45;;;;;;;19.40;6.22;;;4.90;99.90;;;;;;4270247;27;20053;-85
2023/12/27 09:05:47;;;;;;;12.60;5.25;;;5.20;99.90;;;;;;4235979;28;20044;-85
2023/12/27 09:07:50;;;;;;;13.30;5.28;;;4.70;99.90;;;;;;4270300;27;20050;-85
2023/12/27 09:09:51;;;;;;;14.85;4.45;;;4.60;99.90;;;;;;4270261;27;20020;-85
2023/12/27 09:11:52;;;;;;;10.75;4.25;;;4.20;99.90;;;;;;4252028;27;20051;-85
2023/12/27 09:13:53;;;;;;;15.35;3.75;;;4.60;99.90;;;;;;4247319;28;20050;-85
2023/12/27 09:15:55;;;;;;;13.90;3.88;;;5.10;99.90;;;;;;4260790;27;20045;-85
2023/12/27 09:17:56;;;;;;;14.15;3.42;;;5.00;99.90;;;;;;4260113;27;20051;-86
2023/12/27 09:19:56;;;;;;;8.40;2.47;;;5.30;99.90;;;;;;4260407;27;20039;-85
2023/12/27 09:21:58;;;;;;;13.05;2.17;;;4.90;99.90;;;;;;4260670;27;20044;-85
2023/12/27 09:24:00;;;;;;;15.13;2.28;;;4.70;99.90;;;;;;4260730;27;20047;-85
2023/12/27 09:26:01;;;;;;;11.88;2.63;;;5.20;99.90;;;;;;4243016;28;20047;-85
2023/12/27 09:28:02;;;;;;;5.65;1.77;;;3.90;99.90;;;;;;4267096;27;20035;-85
2023/12/27 09:30:04;;;;;;;12.38;2.03;;;3.90;99.90;;;;;;4267658;27;20066;-85
2023/12/27 09:32:05;;;;;;;11.95;2.88;;;3.90;99.90;;;;;;4267940;27;20043;-85
2023/12/27 09:34:06;;;;;;;13.68;2.53;;;4.00;99.90;;;;;;4255749;27;20083;-84
2023/12/27 09:36:07;;;;;;;13.70;2.20;;;5.50;99.90;;;;;;4255695;27;20042;-85
2023/12/27 09:38:07;;;;;;;12.48;2.35;;;4.00;99.90;;;;;;4220186;28;20091;-85
2023/12/27 09:40:09;;;;;;;14.95;3.17;;;4.10;99.90;;;;;;4253212;27;20043;-85
2023/12/27 09:42:10;;;;;;;14.48;2.30;;;4.10;99.90;;;;;;4252656;27;20043;-85
2023/12/27 09:44:13;;;;;;;11.85;2.47;;;5.30;99.90;;;;;;4252727;27;20471;-85
2023/12/27 09:46:18;;;;;;;10.18;2.60;;;4.20;99.90;;;;;;4251895;27;20047;-85
2023/12/27 09:48:20;;;;;;;14.75;2.38;;;4.10;99.90;;;;;;4252471;27;20050;-85
2023/12/27 09:50:20;;;;;;;10.85;1.90;;;5.70;99.90;;;;;;4234209;28;20043;-85
2023/12/27 09:52:23;;;;;;;8.30;1.67;;;4.10;99.90;;;;;;4252445;27;20043;-85
2023/12/27 09:54:24;;;;;;;6.05;1.70;;;4.60;99.90;;;;;;4252452;27;20039;-85
2023/12/27 09:56:27;;;;;;;9.70;1.85;;;5.10;99.90;;;;;;4252507;27;20468;-85
2023/12/27 09:58:29;;;;;;;8.65;1.63;;;4.10;99.90;;;;;;4251945;27;20043;-85
2023/12/27 10:00:33;;;;;;;10.35;2.17;;;5.50;99.90;;;;;;4251232;28;20126;-85
2023/12/27 10:02:36;;;;;;;8.10;2.10;;;5.30;99.90;;;;;;4250803;28;20066;-85
2023/12/27 10:05:08;;;;;;;9.23;2.13;;;4.00;99.90;;;;;;4250333;28;20035;-85
2023/12/27 10:07:09;;;;;;;8.50;1.70;;;4.30;99.90;;;;;;4251190;28;20040;-85
2023/12/27 10:09:10;;;;;;;10.38;2.25;;;5.50;99.90;;;;;;4251229;28;20051;-85
2023/12/27 10:11:13;;;;;;;9.98;2.17;;;5.50;99.90;;;;;;4250873;28;20403;-85
2023/12/27 10:13:15;;;;;;;8.15;1.40;;;4.30;99.90;;;;;;4250892;28;20118;-85
2023/12/27 10:15:17;;;;;;;9.77;2.70;;;4.30;99.90;;;;;;4250729;28;20118;-85
2023/12/27 10:17:19;;;;;;;10.32;2.22;;;5.60;99.90;;;;;;4250547;28;20091;-85
2023/12/27 10:19:40;;;;;;;5.60;1.85;;;4.40;99.90;;;;;;4250653;28;20050;-85
2023/12/27 10:21:42;;;;;;;12.07;2.22;;;4.40;99.90;;;;;;4250835;28;20047;-85
2023/12/27 10:23:44;;;;;;;5.65;1.63;;;4.40;99.90;;;;;;4250352;28;20197;-85
2023/12/27 10:25:46;;;;;;;15.02;2.95;;;4.40;99.90;;;;;;4249627;28;20047;-85
2023/12/27 10:27:48;;;;;;;8.40;1.63;;;4.50;99.90;;;;;;4250489;28;20452;-85
2023/12/27 10:29:49;;;;;;;7.63;2.53;;;4.40;99.90;;;;;;4250064;28;20074;-85
2023/12/27 10:31:50;;;;;;;10.52;1.67;;;4.40;99.90;;;;;;4251407;27;20046;-85
2023/12/27 10:33:52;;;;;;;6.78;2.20;;;4.50;99.90;;;;;;4253835;27;20043;-85
2023/12/27 10:35:54;;;;;;;13.23;2.35;;;4.50;99.90;;;;;;4235604;28;20048;-83
2023/12/27 10:38:02;;;;;;;13.18;1.80;;;5.30;99.90;;;;;;4252960;27;20048;-83
2023/12/27 10:40:04;;;;;;;9.18;2.13;;;4.50;99.90;;;;;;4253087;27;20165;-84